sensor_id;sensor_type;location;lat;lon;timestamp;temperature;humidity
69990;DHT22;57331;52.054;5.294;2022-07-01T00:00:23;14.60;68.20
69990;DHT22;57331;52.054;5.294;2022-07-01T00:02:50;15.50;52.60
69990;DHT22;57331;52.054;5.294;2022-07-01T00:05:17;15.80;68.20
69990;DHT22;57331;52.054;5.294;2022-07-01T00:07:44;16.80;69.10
69990;DHT22;57331;52.054;5.294;2022-07-01T00:10:15;16.10;68.50
69990;DHT22;57331;52.054;5.294;2022-07-01T00:12:44;15.30;54.00
69990;DHT22;57331;52.054;5.294;2022-07-01T00:15:11;15.50;69.40
69990;DHT22;57331;52.054;5.294;2022-07-01T00:17:38;15.30;52.60
69990;DHT22;57331;52.054;5.294;2022-07-01T00:20:07;14.20;66.90
69990;DHT22;57331;52.054;5.294;2022-07-01T00:22:37;16.50;69.40
69990;DHT22;57331;52.054;5.294;2022-07-01T00:25:04;15.50;52.90
69990;DHT22;57331;52.054;5.294;2022-07-01T00:27:31;14.30;67.10
69990;DHT22;57331;52.054;5.294;2022-07-01T00:29:58;16.90;69.10
69990;DHT22;57331;52.054;5.294;2022-07-01T00:32:27;15.50;52.80
69990;DHT22;57331;52.054;5.294;2022-07-01T00:34:54;15.40;69.70
69990;DHT22;57331;52.054;5.294;2022-07-01T00:37:23;15.00;67.80
69990;DHT22;57331;52.054;5.294;2022-07-01T00:39:49;16.90;69.50
69990;DHT22;57331;52.054;5.294;2022-07-01T00:42:16;15.50;53.60
69990;DHT22;57331;52.054;5.294;2022-07-01T00:44:45;16.10;69.10
69990;DHT22;57331;52.054;5.294;2022-07-01T00:47:13;14.60;68.20
69990;DHT22;57331;52.054;5.294;2022-07-01T00:49:42;14.90;69.10
69990;DHT22;57331;52.054;5.294;2022-07-01T00:52:09;14.10;67.90
69990;DHT22;57331;52.054;5.294;2022-07-01T00:54:38;15.10;68.70
69990;DHT22;57331;52.054;5.294;2022-07-01T00:57:07;15.30;55.40
69990;DHT22;57331;52.054;5.294;2022-07-01T00:59:35;15.90;69.30
69990;DHT22;57331;52.054;5.294;2022-07-01T01:02:05;16.50;70.30
69990;DHT22;57331;52.054;5.294;2022-07-01T01:04:32;14.90;69.90
69990;DHT22;57331;52.054;5.294;2022-07-01T01:07:02;16.40;71.00
69990;DHT22;57331;52.054;5.294;2022-07-01T01:09:30;14.90;69.80
69990;DHT22;57331;52.054;5.294;2022-07-01T01:11:57;16.60;71.60
69990;DHT22;57331;52.054;5.294;2022-07-01T01:14:25;15.80;70.80
69990;DHT22;57331;52.054;5.294;2022-07-01T01:19:43;14.70;69.40
69990;DHT22;57331;52.054;5.294;2022-07-01T01:22:13;15.30;70.20
69990;DHT22;57331;52.054;5.294;2022-07-01T01:24:42;16.60;70.70
69990;DHT22;57331;52.054;5.294;2022-07-01T01:27:09;13.90;68.90
69990;DHT22;57331;52.054;5.294;2022-07-01T01:29:36;14.00;69.50
69990;DHT22;57331;52.054;5.294;2022-07-01T01:32:06;16.10;70.30
69990;DHT22;57331;52.054;5.294;2022-07-01T01:34:34;16.00;70.10
69990;DHT22;57331;52.054;5.294;2022-07-01T01:37:08;14.90;55.70
69990;DHT22;57331;52.054;5.294;2022-07-01T01:39:35;14.70;69.50
69990;DHT22;57331;52.054;5.294;2022-07-01T01:42:06;14.10;69.60
69990;DHT22;57331;52.054;5.294;2022-07-01T01:44:33;16.40;70.20
69990;DHT22;57331;52.054;5.294;2022-07-01T01:47:00;16.40;70.70
69990;DHT22;57331;52.054;5.294;2022-07-01T01:49:29;16.30;70.00
69990;DHT22;57331;52.054;5.294;2022-07-01T01:51:58;16.10;70.10
69990;DHT22;57331;52.054;5.294;2022-07-01T01:54:28;16.20;70.00
69990;DHT22;57331;52.054;5.294;2022-07-01T01:56:55;13.70;68.70
69990;DHT22;57331;52.054;5.294;2022-07-01T01:59:22;16.20;69.80
69990;DHT22;57331;52.054;5.294;2022-07-01T02:01:49;15.50;69.70
69990;DHT22;57331;52.054;5.294;2022-07-01T02:06:45;16.10;66.70
69990;DHT22;57331;52.054;5.294;2022-07-01T02:09:12;15.00;69.60
69990;DHT22;57331;52.054;5.294;2022-07-01T02:11:39;14.80;69.80
69990;DHT22;57331;52.054;5.294;2022-07-01T02:14:08;15.70;71.30
69990;DHT22;57331;52.054;5.294;2022-07-01T02:16:35;13.70;69.50
69990;DHT22;57331;52.054;5.294;2022-07-01T02:19:04;15.70;70.90
69990;DHT22;57331;52.054;5.294;2022-07-01T02:26:25;13.90;69.90
69990;DHT22;57331;52.054;5.294;2022-07-01T02:28:52;13.50;69.50
69990;DHT22;57331;52.054;5.294;2022-07-01T02:31:20;13.60;70.30
69990;DHT22;57331;52.054;5.294;2022-07-01T02:33:47;14.10;70.30
69990;DHT22;57331;52.054;5.294;2022-07-01T02:36:14;15.30;70.80
69990;DHT22;57331;52.054;5.294;2022-07-01T02:41:08;14.60;70.10
69990;DHT22;57331;52.054;5.294;2022-07-01T02:43:38;13.90;69.70
69990;DHT22;57331;52.054;5.294;2022-07-01T02:46:05;15.70;70.80
69990;DHT22;57331;52.054;5.294;2022-07-01T02:50:59;13.00;69.90
69990;DHT22;57331;52.054;5.294;2022-07-01T02:53:26;15.00;70.60
69990;DHT22;57331;52.054;5.294;2022-07-01T02:55:55;15.60;71.30
69990;DHT22;57331;52.054;5.294;2022-07-01T02:58:21;13.70;70.20
69990;DHT22;57331;52.054;5.294;2022-07-01T03:00:48;13.20;70.10
69990;DHT22;57331;52.054;5.294;2022-07-01T03:03:19;14.40;71.00
69990;DHT22;57331;52.054;5.294;2022-07-01T03:08:16;13.40;70.30
69990;DHT22;57331;52.054;5.294;2022-07-01T03:10:43;15.40;71.20
69990;DHT22;57331;52.054;5.294;2022-07-01T03:13:10;14.80;71.80
69990;DHT22;57331;52.054;5.294;2022-07-01T03:15:37;13.00;70.10
69990;DHT22;57331;52.054;5.294;2022-07-01T03:20:35;13.00;70.50
69990;DHT22;57331;52.054;5.294;2022-07-01T03:23:02;15.20;71.80
69990;DHT22;57331;52.054;5.294;2022-07-01T03:25:28;15.00;71.60
69990;DHT22;57331;52.054;5.294;2022-07-01T03:27:55;13.10;70.60
69990;DHT22;57331;52.054;5.294;2022-07-01T03:30:22;13.20;70.70
69990;DHT22;57331;52.054;5.294;2022-07-01T03:32:49;13.00;70.50
69990;DHT22;57331;52.054;5.294;2022-07-01T03:35:16;15.10;72.00
69990;DHT22;57331;52.054;5.294;2022-07-01T03:38:03;14.70;71.50
69990;DHT22;57331;52.054;5.294;2022-07-01T03:40:32;13.70;71.20
69990;DHT22;57331;52.054;5.294;2022-07-01T03:42:59;13.20;70.80
69990;DHT22;57331;52.054;5.294;2022-07-01T03:45:26;14.70;71.60
69990;DHT22;57331;52.054;5.294;2022-07-01T03:50:22;14.50;55.90
69990;DHT22;57331;52.054;5.294;2022-07-01T03:52:49;15.70;58.30
69990;DHT22;57331;52.054;5.294;2022-07-01T03:55:36;13.50;71.40
69990;DHT22;57331;52.054;5.294;2022-07-01T03:58:03;15.30;60.60
69990;DHT22;57331;52.054;5.294;2022-07-01T04:00:33;14.50;56.90
69990;DHT22;57331;52.054;5.294;2022-07-01T04:05:28;15.90;73.20
69990;DHT22;57331;52.054;5.294;2022-07-01T04:07:58;15.90;72.40
69990;DHT22;57331;52.054;5.294;2022-07-01T04:18:10;15.90;72.10
69990;DHT22;57331;52.054;5.294;2022-07-01T04:23:04;14.50;71.50
69990;DHT22;57331;52.054;5.294;2022-07-01T04:25:31;14.40;71.20
69990;DHT22;57331;52.054;5.294;2022-07-01T04:27:58;15.60;71.80
69990;DHT22;57331;52.054;5.294;2022-07-01T04:32:54;15.20;71.60
69990;DHT22;57331;52.054;5.294;2022-07-01T04:37:48;13.90;70.70
69990;DHT22;57331;52.054;5.294;2022-07-01T04:40:15;15.10;71.20
69990;DHT22;57331;52.054;5.294;2022-07-01T04:42:44;16.00;71.70
69990;DHT22;57331;52.054;5.294;2022-07-01T04:45:11;14.70;72.60
69990;DHT22;57331;52.054;5.294;2022-07-01T04:47:38;14.60;70.80
69990;DHT22;57331;52.054;5.294;2022-07-01T04:50:05;14.30;70.70
69990;DHT22;57331;52.054;5.294;2022-07-01T04:57:33;16.10;72.10
69990;DHT22;57331;52.054;5.294;2022-07-01T04:59:59;14.10;70.40
69990;DHT22;57331;52.054;5.294;2022-07-01T05:02:26;13.80;70.60
69990;DHT22;57331;52.054;5.294;2022-07-01T05:04:53;13.50;70.50
69990;DHT22;57331;52.054;5.294;2022-07-01T05:07:20;14.90;70.80
69990;DHT22;57331;52.054;5.294;2022-07-01T05:09:56;14.50;71.00
69990;DHT22;57331;52.054;5.294;2022-07-01T05:17:21;14.90;71.10
69990;DHT22;57331;52.054;5.294;2022-07-01T05:20:09;15.00;73.30
69990;DHT22;57331;52.054;5.294;2022-07-01T05:22:54;15.70;71.30
69990;DHT22;57331;52.054;5.294;2022-07-01T05:25:23;13.60;70.30
69990;DHT22;57331;52.054;5.294;2022-07-01T05:27:50;14.90;57.50
69990;DHT22;57331;52.054;5.294;2022-07-01T05:30:17;15.60;56.40
69990;DHT22;57331;52.054;5.294;2022-07-01T05:32:44;14.60;70.10
69990;DHT22;57331;52.054;5.294;2022-07-01T05:35:10;14.40;70.20
69990;DHT22;57331;52.054;5.294;2022-07-01T05:37:39;13.80;69.90
69990;DHT22;57331;52.054;5.294;2022-07-01T05:40:07;13.90;70.90
69990;DHT22;57331;52.054;5.294;2022-07-01T05:42:34;16.60;71.70
69990;DHT22;57331;52.054;5.294;2022-07-01T05:45:01;16.50;71.10
69990;DHT22;57331;52.054;5.294;2022-07-01T05:47:27;13.90;69.80
69990;DHT22;57331;52.054;5.294;2022-07-01T05:49:54;16.60;71.10
69990;DHT22;57331;52.054;5.294;2022-07-01T05:52:21;16.50;70.60
69990;DHT22;57331;52.054;5.294;2022-07-01T05:54:48;14.40;69.70
69990;DHT22;57331;52.054;5.294;2022-07-01T05:57:17;15.70;70.10
69990;DHT22;57331;52.054;5.294;2022-07-01T05:59:44;16.60;71.50
69990;DHT22;57331;52.054;5.294;2022-07-01T06:02:11;15.10;70.50
69990;DHT22;57331;52.054;5.294;2022-07-01T06:04:37;15.20;69.50
69990;DHT22;57331;52.054;5.294;2022-07-01T06:07:07;15.40;54.70
69990;DHT22;57331;52.054;5.294;2022-07-01T06:09:34;15.60;55.60
69990;DHT22;57331;52.054;5.294;2022-07-01T06:12:01;16.30;70.30
69990;DHT22;57331;52.054;5.294;2022-07-01T06:14:28;15.40;69.60
69990;DHT22;57331;52.054;5.294;2022-07-01T06:16:55;14.20;68.80
69990;DHT22;57331;52.054;5.294;2022-07-01T06:19:22;15.30;69.60
69990;DHT22;57331;52.054;5.294;2022-07-01T06:21:48;15.50;54.60
69990;DHT22;57331;52.054;5.294;2022-07-01T06:24:15;15.70;70.70
69990;DHT22;57331;52.054;5.294;2022-07-01T06:26:44;16.50;55.00
69990;DHT22;57331;52.054;5.294;2022-07-01T06:29:11;17.10;70.10
69990;DHT22;57331;52.054;5.294;2022-07-01T06:31:38;15.90;54.60
69990;DHT22;57331;52.054;5.294;2022-07-01T06:34:05;16.00;53.50
69990;DHT22;57331;52.054;5.294;2022-07-01T06:36:32;16.50;69.60
69990;DHT22;57331;52.054;5.294;2022-07-01T06:38:59;16.20;53.10
69990;DHT22;57331;52.054;5.294;2022-07-01T06:41:26;16.30;52.70
69990;DHT22;57331;52.054;5.294;2022-07-01T06:43:57;16.20;50.50
69990;DHT22;57331;52.054;5.294;2022-07-01T06:46:25;15.40;67.20
69990;DHT22;57331;52.054;5.294;2022-07-01T06:48:53;16.40;67.90
69990;DHT22;57331;52.054;5.294;2022-07-01T06:51:20;16.40;51.90
69990;DHT22;57331;52.054;5.294;2022-07-01T06:53:47;17.10;51.90
69990;DHT22;57331;52.054;5.294;2022-07-01T06:56:14;16.50;52.30
69990;DHT22;57331;52.054;5.294;2022-07-01T06:58:41;16.80;67.60
69990;DHT22;57331;52.054;5.294;2022-07-01T07:01:10;16.50;51.60
69990;DHT22;57331;52.054;5.294;2022-07-01T07:03:38;15.30;66.00
69990;DHT22;57331;52.054;5.294;2022-07-01T07:06:05;18.10;66.70
69990;DHT22;57331;52.054;5.294;2022-07-01T07:08:33;17.10;66.50
69990;DHT22;57331;52.054;5.294;2022-07-01T07:11:00;17.30;64.10
69990;DHT22;57331;52.054;5.294;2022-07-01T07:13:28;18.20;49.30
69990;DHT22;57331;52.054;5.294;2022-07-01T07:15:56;17.20;49.80
69990;DHT22;57331;52.054;5.294;2022-07-01T07:18:22;16.20;63.00
69990;DHT22;57331;52.054;5.294;2022-07-01T07:20:51;17.30;47.80
69990;DHT22;57331;52.054;5.294;2022-07-01T07:23:27;17.60;63.70
69990;DHT22;57331;52.054;5.294;2022-07-01T07:25:55;18.50;62.70
69990;DHT22;57331;52.054;5.294;2022-07-01T07:28:22;17.80;61.60
69990;DHT22;57331;52.054;5.294;2022-07-01T07:30:49;19.00;60.70
69990;DHT22;57331;52.054;5.294;2022-07-01T07:33:15;18.30;45.20
69990;DHT22;57331;52.054;5.294;2022-07-01T07:35:42;18.40;44.80
69990;DHT22;57331;52.054;5.294;2022-07-01T07:38:10;18.70;59.70
69990;DHT22;57331;52.054;5.294;2022-07-01T07:40:37;18.60;44.00
69990;DHT22;57331;52.054;5.294;2022-07-01T07:43:03;18.40;43.70
69990;DHT22;57331;52.054;5.294;2022-07-01T07:45:32;18.60;44.50
69990;DHT22;57331;52.054;5.294;2022-07-01T07:47:59;17.10;59.20
69990;DHT22;57331;52.054;5.294;2022-07-01T07:50:27;18.90;44.90
69990;DHT22;57331;52.054;5.294;2022-07-01T07:52:54;18.00;44.50
69990;DHT22;57331;52.054;5.294;2022-07-01T07:55:21;18.20;44.90
69990;DHT22;57331;52.054;5.294;2022-07-01T07:57:47;18.70;43.40
69990;DHT22;57331;52.054;5.294;2022-07-01T08:00:15;18.40;43.80
69990;DHT22;57331;52.054;5.294;2022-07-01T08:02:43;18.20;43.50
69990;DHT22;57331;52.054;5.294;2022-07-01T08:05:11;18.30;42.10
69990;DHT22;57331;52.054;5.294;2022-07-01T08:07:39;18.70;41.80
69990;DHT22;57331;52.054;5.294;2022-07-01T08:10:08;18.80;42.10
69990;DHT22;57331;52.054;5.294;2022-07-01T08:12:35;18.90;40.30
69990;DHT22;57331;52.054;5.294;2022-07-01T08:15:03;19.00;39.80
69990;DHT22;57331;52.054;5.294;2022-07-01T08:17:31;19.00;39.40
69990;DHT22;57331;52.054;5.294;2022-07-01T08:19:58;19.00;38.80
69990;DHT22;57331;52.054;5.294;2022-07-01T08:22:25;18.90;56.60
69990;DHT22;57331;52.054;5.294;2022-07-01T08:24:51;18.80;39.90
69990;DHT22;57331;52.054;5.294;2022-07-01T08:27:18;19.20;39.80
69990;DHT22;57331;52.054;5.294;2022-07-01T08:29:45;19.40;38.00
69990;DHT22;57331;52.054;5.294;2022-07-01T08:32:12;19.60;37.10
69990;DHT22;57331;52.054;5.294;2022-07-01T08:34:39;19.60;36.70
69990;DHT22;57331;52.054;5.294;2022-07-01T08:37:06;19.70;35.50
69990;DHT22;57331;52.054;5.294;2022-07-01T08:39:37;19.80;35.50
69990;DHT22;57331;52.054;5.294;2022-07-01T08:42:06;20.80;35.80
69990;DHT22;57331;52.054;5.294;2022-07-01T08:44:33;20.10;34.90
69990;DHT22;57331;52.054;5.294;2022-07-01T08:47:02;20.10;34.10
69990;DHT22;57331;52.054;5.294;2022-07-01T08:49:29;19.90;34.20
69990;DHT22;57331;52.054;5.294;2022-07-01T08:51:57;20.00;50.40
69990;DHT22;57331;52.054;5.294;2022-07-01T08:54:24;19.60;48.60
69990;DHT22;57331;52.054;5.294;2022-07-01T08:56:50;19.50;34.20
69990;DHT22;57331;52.054;5.294;2022-07-01T08:59:25;19.60;33.60
69990;DHT22;57331;52.054;5.294;2022-07-01T09:01:58;20.10;35.40
69990;DHT22;57331;52.054;5.294;2022-07-01T09:04:25;19.50;34.60
69990;DHT22;57331;52.054;5.294;2022-07-01T09:07:02;20.20;49.20
69990;DHT22;57331;52.054;5.294;2022-07-01T09:09:34;19.50;32.40
69990;DHT22;57331;52.054;5.294;2022-07-01T09:12:02;20.10;33.80
69990;DHT22;57331;52.054;5.294;2022-07-01T09:14:31;20.40;31.20
69990;DHT22;57331;52.054;5.294;2022-07-01T09:17:01;20.50;30.30
69990;DHT22;57331;52.054;5.294;2022-07-01T09:19:33;20.50;29.00
69990;DHT22;57331;52.054;5.294;2022-07-01T09:22:01;20.70;28.90
69990;DHT22;57331;52.054;5.294;2022-07-01T09:24:40;20.90;27.50
69990;DHT22;57331;52.054;5.294;2022-07-01T09:27:13;21.60;26.30
69990;DHT22;57331;52.054;5.294;2022-07-01T09:29:50;21.00;25.60
69990;DHT22;57331;52.054;5.294;2022-07-01T09:32:19;21.10;23.80
69990;DHT22;57331;52.054;5.294;2022-07-01T09:34:51;21.90;27.90
69990;DHT22;57331;52.054;5.294;2022-07-01T09:37:25;21.40;25.20
69990;DHT22;57331;52.054;5.294;2022-07-01T09:39:54;22.20;25.50
69990;DHT22;57331;52.054;5.294;2022-07-01T09:42:23;21.40;24.50
69990;DHT22;57331;52.054;5.294;2022-07-01T09:45:04;22.20;22.50
69990;DHT22;57331;52.054;5.294;2022-07-01T09:47:40;21.70;21.90
69990;DHT22;57331;52.054;5.294;2022-07-01T09:50:08;21.80;24.20
69990;DHT22;57331;52.054;5.294;2022-07-01T09:52:35;22.10;21.90
69990;DHT22;57331;52.054;5.294;2022-07-01T09:55:04;22.10;21.20
69990;DHT22;57331;52.054;5.294;2022-07-01T09:57:32;22.40;22.10
69990;DHT22;57331;52.054;5.294;2022-07-01T09:59:59;23.40;20.80
69990;DHT22;57331;52.054;5.294;2022-07-01T10:02:27;22.70;19.50
69990;DHT22;57331;52.054;5.294;2022-07-01T10:05:01;22.70;20.80
69990;DHT22;57331;52.054;5.294;2022-07-01T10:13:26;22.80;18.00
69990;DHT22;57331;52.054;5.294;2022-07-01T10:15:56;22.50;19.20
69990;DHT22;57331;52.054;5.294;2022-07-01T10:18:26;22.40;20.30
69990;DHT22;57331;52.054;5.294;2022-07-01T10:20:55;22.70;20.50
69990;DHT22;57331;52.054;5.294;2022-07-01T10:23:27;23.30;20.80
69990;DHT22;57331;52.054;5.294;2022-07-01T10:26:02;23.40;20.10
69990;DHT22;57331;52.054;5.294;2022-07-01T10:28:50;23.80;19.20
69990;DHT22;57331;52.054;5.294;2022-07-01T10:31:19;24.80;19.70
69990;DHT22;57331;52.054;5.294;2022-07-01T10:34:07;23.40;18.00
69990;DHT22;57331;52.054;5.294;2022-07-01T10:36:35;23.10;18.90
69990;DHT22;57331;52.054;5.294;2022-07-01T10:45:03;23.10;18.00
69990;DHT22;57331;52.054;5.294;2022-07-01T10:47:33;23.20;17.90
69990;DHT22;57331;52.054;5.294;2022-07-01T10:50:10;23.50;17.60
69990;DHT22;57331;52.054;5.294;2022-07-01T10:52:37;23.70;15.80
69990;DHT22;57331;52.054;5.294;2022-07-01T10:55:08;24.90;16.70
69990;DHT22;57331;52.054;5.294;2022-07-01T10:57:40;24.20;16.80
69990;DHT22;57331;52.054;5.294;2022-07-01T11:02:35;24.70;14.80
69990;DHT22;57331;52.054;5.294;2022-07-01T11:05:11;25.00;15.50
69990;DHT22;57331;52.054;5.294;2022-07-01T11:07:41;25.10;13.80
69990;DHT22;57331;52.054;5.294;2022-07-01T11:10:16;25.10;14.80
69990;DHT22;57331;52.054;5.294;2022-07-01T11:12:44;25.30;14.70
69990;DHT22;57331;52.054;5.294;2022-07-01T11:15:15;26.00;15.00
69990;DHT22;57331;52.054;5.294;2022-07-01T11:17:44;25.70;13.70
69990;DHT22;57331;52.054;5.294;2022-07-01T11:20:13;25.60;14.10
69990;DHT22;57331;52.054;5.294;2022-07-01T11:22:46;25.60;14.80
69990;DHT22;57331;52.054;5.294;2022-07-01T11:25:13;25.80;14.00
69990;DHT22;57331;52.054;5.294;2022-07-01T11:27:49;25.70;12.90
69990;DHT22;57331;52.054;5.294;2022-07-01T11:30:16;25.10;12.20
69990;DHT22;57331;52.054;5.294;2022-07-01T11:32:55;25.00;12.30
69990;DHT22;57331;52.054;5.294;2022-07-01T11:35:26;25.10;13.50
69990;DHT22;57331;52.054;5.294;2022-07-01T11:38:18;25.30;13.80
69990;DHT22;57331;52.054;5.294;2022-07-01T11:41:08;25.60;13.50
69990;DHT22;57331;52.054;5.294;2022-07-01T11:43:37;25.30;12.80
69990;DHT22;57331;52.054;5.294;2022-07-01T11:46:06;25.30;11.30
69990;DHT22;57331;52.054;5.294;2022-07-01T11:48:45;25.20;11.80
69990;DHT22;57331;52.054;5.294;2022-07-01T11:51:21;25.30;13.00
69990;DHT22;57331;52.054;5.294;2022-07-01T11:53:50;25.00;11.70
69990;DHT22;57331;52.054;5.294;2022-07-01T11:56:34;25.10;13.10
69990;DHT22;57331;52.054;5.294;2022-07-01T11:59:04;25.40;10.60
69990;DHT22;57331;52.054;5.294;2022-07-01T12:01:36;25.50;12.20
69990;DHT22;57331;52.054;5.294;2022-07-01T12:04:07;25.80;10.60
69990;DHT22;57331;52.054;5.294;2022-07-01T12:06:36;25.90;11.50
69990;DHT22;57331;52.054;5.294;2022-07-01T12:09:04;25.70;11.10
69990;DHT22;57331;52.054;5.294;2022-07-01T12:11:34;26.20;12.20
69990;DHT22;57331;52.054;5.294;2022-07-01T12:14:05;26.20;11.30
69990;DHT22;57331;52.054;5.294;2022-07-01T12:16:43;26.00;10.70
69990;DHT22;57331;52.054;5.294;2022-07-01T12:19:10;26.00;11.90
69990;DHT22;57331;52.054;5.294;2022-07-01T12:21:53;26.10;10.80
69990;DHT22;57331;52.054;5.294;2022-07-01T12:24:21;26.80;11.20
69990;DHT22;57331;52.054;5.294;2022-07-01T12:29:22;26.10;10.50
69990;DHT22;57331;52.054;5.294;2022-07-01T12:32:01;26.10;10.70
69990;DHT22;57331;52.054;5.294;2022-07-01T12:34:40;26.20;10.60
69990;DHT22;57331;52.054;5.294;2022-07-01T12:37:11;26.30;10.90
69990;DHT22;57331;52.054;5.294;2022-07-01T12:39:51;26.30;11.00
69990;DHT22;57331;52.054;5.294;2022-07-01T12:42:31;26.50;10.60
69990;DHT22;57331;52.054;5.294;2022-07-01T12:45:02;26.80;10.20
69990;DHT22;57331;52.054;5.294;2022-07-01T12:47:36;26.70;10.00
69990;DHT22;57331;52.054;5.294;2022-07-01T12:50:19;26.60;10.80
69990;DHT22;57331;52.054;5.294;2022-07-01T12:53:03;26.50;10.50
69990;DHT22;57331;52.054;5.294;2022-07-01T12:57:59;26.00;12.00
69990;DHT22;57331;52.054;5.294;2022-07-01T13:00:28;25.80;11.80
69990;DHT22;57331;52.054;5.294;2022-07-01T13:02:58;25.30;12.30
69990;DHT22;57331;52.054;5.294;2022-07-01T13:05:25;24.80;13.10
69990;DHT22;57331;52.054;5.294;2022-07-01T13:07:52;24.70;13.80
69990;DHT22;57331;52.054;5.294;2022-07-01T13:10:20;24.50;14.30
69990;DHT22;57331;52.054;5.294;2022-07-01T13:12:47;23.90;14.30
69990;DHT22;57331;52.054;5.294;2022-07-01T13:15:16;23.80;14.70
69990;DHT22;57331;52.054;5.294;2022-07-01T13:17:46;23.40;15.50
69990;DHT22;57331;52.054;5.294;2022-07-01T13:20:13;23.20;16.10
69990;DHT22;57331;52.054;5.294;2022-07-01T13:22:41;23.10;16.70
69990;DHT22;57331;52.054;5.294;2022-07-01T13:25:08;22.90;17.20
69990;DHT22;57331;52.054;5.294;2022-07-01T13:27:36;23.10;17.10
69990;DHT22;57331;52.054;5.294;2022-07-01T13:30:06;23.60;18.40
69990;DHT22;57331;52.054;5.294;2022-07-01T13:32:38;22.60;19.00
69990;DHT22;57331;52.054;5.294;2022-07-01T13:35:07;22.30;18.90
69990;DHT22;57331;52.054;5.294;2022-07-01T13:37:35;22.40;19.80
69990;DHT22;57331;52.054;5.294;2022-07-01T13:40:02;22.50;19.90
69990;DHT22;57331;52.054;5.294;2022-07-01T13:42:31;23.20;19.30
69990;DHT22;57331;52.054;5.294;2022-07-01T13:44:58;23.60;17.20
69990;DHT22;57331;52.054;5.294;2022-07-01T13:47:25;24.30;16.20
69990;DHT22;57331;52.054;5.294;2022-07-01T13:49:51;24.80;15.80
69990;DHT22;57331;52.054;5.294;2022-07-01T13:52:18;25.50;14.10
69990;DHT22;57331;52.054;5.294;2022-07-01T13:54:45;25.70;14.30
69990;DHT22;57331;52.054;5.294;2022-07-01T13:57:12;26.80;14.20
69990;DHT22;57331;52.054;5.294;2022-07-01T13:59:39;25.50;13.40
69990;DHT22;57331;52.054;5.294;2022-07-01T14:02:08;25.10;14.10
69990;DHT22;57331;52.054;5.294;2022-07-01T14:04:35;24.70;15.10
69990;DHT22;57331;52.054;5.294;2022-07-01T14:07:03;24.10;15.80
69990;DHT22;57331;52.054;5.294;2022-07-01T14:09:30;23.80;16.10
69990;DHT22;57331;52.054;5.294;2022-07-01T14:11:57;24.00;16.60
69990;DHT22;57331;52.054;5.294;2022-07-01T14:14:24;23.30;17.30
69990;DHT22;57331;52.054;5.294;2022-07-01T14:16:51;23.00;18.00
69990;DHT22;57331;52.054;5.294;2022-07-01T14:19:18;24.30;18.40
69990;DHT22;57331;52.054;5.294;2022-07-01T14:21:45;23.00;18.10
69990;DHT22;57331;52.054;5.294;2022-07-01T14:24:11;23.40;17.90
69990;DHT22;57331;52.054;5.294;2022-07-01T14:26:38;23.40;17.90
69990;DHT22;57331;52.054;5.294;2022-07-01T14:29:05;24.60;17.50
69990;DHT22;57331;52.054;5.294;2022-07-01T14:31:32;24.60;17.20
69990;DHT22;57331;52.054;5.294;2022-07-01T14:33:59;24.10;16.40
69990;DHT22;57331;52.054;5.294;2022-07-01T14:36:26;24.10;16.30
69990;DHT22;57331;52.054;5.294;2022-07-01T14:38:53;24.40;16.40
69990;DHT22;57331;52.054;5.294;2022-07-01T14:41:19;23.80;16.60
69990;DHT22;57331;52.054;5.294;2022-07-01T14:43:47;23.50;17.10
69990;DHT22;57331;52.054;5.294;2022-07-01T14:46:13;23.20;18.00
69990;DHT22;57331;52.054;5.294;2022-07-01T14:48:42;23.00;18.10
69990;DHT22;57331;52.054;5.294;2022-07-01T14:51:09;22.40;18.80
69990;DHT22;57331;52.054;5.294;2022-07-01T14:53:36;22.70;19.20
69990;DHT22;57331;52.054;5.294;2022-07-01T14:56:03;23.00;18.70
69990;DHT22;57331;52.054;5.294;2022-07-01T14:58:30;22.80;18.70
69990;DHT22;57331;52.054;5.294;2022-07-01T15:00:57;23.10;18.80
69990;DHT22;57331;52.054;5.294;2022-07-01T15:03:24;23.30;18.50
69990;DHT22;57331;52.054;5.294;2022-07-01T15:05:50;23.20;18.00
69990;DHT22;57331;52.054;5.294;2022-07-01T15:08:21;23.20;17.80
69990;DHT22;57331;52.054;5.294;2022-07-01T15:10:50;23.50;18.30
69990;DHT22;57331;52.054;5.294;2022-07-01T15:13:17;23.50;18.00
69990;DHT22;57331;52.054;5.294;2022-07-01T15:15:44;24.40;18.50
69990;DHT22;57331;52.054;5.294;2022-07-01T15:18:11;23.90;17.20
69990;DHT22;57331;52.054;5.294;2022-07-01T15:20:38;23.90;17.50
69990;DHT22;57331;52.054;5.294;2022-07-01T15:23:04;23.80;16.70
69990;DHT22;57331;52.054;5.294;2022-07-01T15:25:31;24.00;17.10
69990;DHT22;57331;52.054;5.294;2022-07-01T15:27:58;23.20;17.20
69990;DHT22;57331;52.054;5.294;2022-07-01T15:30:25;23.80;17.60
69990;DHT22;57331;52.054;5.294;2022-07-01T15:32:52;23.70;16.80
69990;DHT22;57331;52.054;5.294;2022-07-01T15:35:21;25.20;16.50
69990;DHT22;57331;52.054;5.294;2022-07-01T15:37:48;24.80;15.50
69990;DHT22;57331;52.054;5.294;2022-07-01T15:40:15;24.80;14.50
69990;DHT22;57331;52.054;5.294;2022-07-01T15:42:42;24.60;15.20
69990;DHT22;57331;52.054;5.294;2022-07-01T15:45:10;24.80;15.20
69990;DHT22;57331;52.054;5.294;2022-07-01T15:47:38;25.00;15.10
69990;DHT22;57331;52.054;5.294;2022-07-01T15:50:23;25.30;14.40
69990;DHT22;57331;52.054;5.294;2022-07-01T15:52:51;25.60;14.40
69990;DHT22;57331;52.054;5.294;2022-07-01T15:55:18;25.60;14.50
69990;DHT22;57331;52.054;5.294;2022-07-01T15:57:46;25.60;14.40
69990;DHT22;57331;52.054;5.294;2022-07-01T16:00:21;25.70;14.40
69990;DHT22;57331;52.054;5.294;2022-07-01T16:02:48;25.90;13.30
69990;DHT22;57331;52.054;5.294;2022-07-01T16:05:15;26.40;13.60
69990;DHT22;57331;52.054;5.294;2022-07-01T16:07:43;26.40;35.50
69990;DHT22;57331;52.054;5.294;2022-07-01T16:12:49;26.70;33.80
69990;DHT22;57331;52.054;5.294;2022-07-01T16:15:17;26.30;35.90
69990;DHT22;57331;52.054;5.294;2022-07-01T16:17:49;26.30;36.60
69990;DHT22;57331;52.054;5.294;2022-07-01T16:20:17;25.60;38.90
69990;DHT22;57331;52.054;5.294;2022-07-01T16:22:47;24.70;40.20
69990;DHT22;57331;52.054;5.294;2022-07-01T16:25:16;24.20;42.60
69990;DHT22;57331;52.054;5.294;2022-07-01T16:27:46;23.50;43.80
69990;DHT22;57331;52.054;5.294;2022-07-01T16:30:20;23.40;46.40
69990;DHT22;57331;52.054;5.294;2022-07-01T16:32:47;22.90;45.90
69990;DHT22;57331;52.054;5.294;2022-07-01T16:35:15;23.20;46.80
69990;DHT22;57331;52.054;5.294;2022-07-01T16:37:48;22.80;46.90
69990;DHT22;57331;52.054;5.294;2022-07-01T16:40:26;22.90;48.80
69990;DHT22;57331;52.054;5.294;2022-07-01T16:42:54;22.90;49.60
69990;DHT22;57331;52.054;5.294;2022-07-01T16:45:40;22.90;48.50
69990;DHT22;57331;52.054;5.294;2022-07-01T16:48:09;23.60;47.00
69990;DHT22;57331;52.054;5.294;2022-07-01T16:50:52;24.80;47.40
69990;DHT22;57331;52.054;5.294;2022-07-01T16:53:22;25.10;46.20